Time;durP1;ratioP1;P1;durP2;ratioP2;P2;SDS_P1;SDS_P2;PMS_P1;PMS_P2;Temp;Humidity;BMP_temperature;BMP_pressure;BME280_temperature;BME280_humidity;BME280_pressure;Samples;Min_cycle;Max_cycle;Signal;HPM_P1;HPM_P2
2023/04/13 00:00:08;;;;;;;2.42;2.22;;;;;;;5.84;100.00;95126.91;5081604;28;20073;-53
2023/04/13 00:02:37;;;;;;;2.53;2.33;;;;;;;5.85;100.00;95118.13;5086503;28;20047;-53
2023/04/13 00:05:06;;;;;;;3.17;2.70;;;;;;;5.87;100.00;95115.38;5083971;28;20032;-52
2023/04/13 00:07:32;;;;;;;3.35;3.05;;;;;;;5.91;100.00;95116.78;5087843;28;20016;-49
2023/04/13 00:10:01;;;;;;;2.42;2.25;;;;;;;5.94;100.00;95113.06;5090083;28;20042;-50
2023/04/13 00:12:27;;;;;;;2.67;2.10;;;;;;;5.95;100.00;95110.34;5081253;28;20032;-51
2023/04/13 00:14:52;;;;;;;2.97;2.40;;;;;;;5.96;100.00;95104.16;5087900;28;20027;-54
2023/04/13 00:17:17;;;;;;;2.25;2.08;;;;;;;5.91;100.00;95095.88;5086962;28;20441;-50
2023/04/13 00:19:46;;;;;;;4.78;2.33;;;;;;;5.82;100.00;95099.25;5082034;28;20036;-53
2023/04/13 00:22:12;;;;;;;2.35;1.80;;;;;;;5.80;100.00;95090.72;5081449;28;20533;-50
2023/04/13 00:24:38;;;;;;;2.60;2.13;;;;;;;5.76;100.00;95090.16;5099636;28;20051;-53
2023/04/13 00:27:03;;;;;;;5.05;2.42;;;;;;;5.70;100.00;95093.25;5078681;28;20028;-52
2023/04/13 00:29:29;;;;;;;2.25;2.00;;;;;;;5.62;100.00;95091.25;5084425;28;20024;-52
2023/04/13 00:31:55;;;;;;;3.42;2.08;;;;;;;5.55;100.00;95084.91;5083630;28;20070;-50
2023/04/13 00:34:21;;;;;;;1.92;1.77;;;;;;;5.54;100.00;95091.06;5091993;28;20016;-52
2023/04/13 00:36:48;;;;;;;2.75;1.90;;;;;;;5.75;100.00;95078.06;5090273;28;20024;-53
2023/04/13 00:39:14;;;;;;;2.20;1.90;;;;;;;5.64;100.00;95084.16;5082215;28;20036;-54
2023/04/13 00:41:40;;;;;;;4.82;2.03;;;;;;;5.56;100.00;95092.63;5081817;28;20027;-52
2023/04/13 00:44:07;;;;;;;1.80;1.70;;;;;;;5.68;100.00;95085.56;5080971;28;20016;-53
2023/04/13 00:46:33;;;;;;;5.57;1.80;;;;;;;5.72;100.00;95093.94;5088959;28;20465;-50
2023/04/13 00:49:00;;;;;;;3.53;1.90;;;;;;;5.47;100.00;95093.34;5092736;28;20176;-53
2023/04/13 00:51:28;;;;;;;3.55;2.13;;;;;;;5.40;100.00;95095.63;5083065;28;20035;-52
2023/04/13 00:53:56;;;;;;;5.82;1.90;;;;;;;5.49;100.00;95103.69;5090353;28;20056;-52
2023/04/13 00:56:26;;;;;;;2.63;1.80;;;;;;;5.41;100.00;95099.91;5082935;28;20043;-54
2023/04/13 00:58:52;;;;;;;1.98;1.77;;;;;;;5.48;100.00;95110.69;5095432;28;20050;-50
2023/04/13 01:01:18;;;;;;;3.60;1.92;;;;;;;5.43;100.00;95105.84;5096076;28;20024;-49
2023/04/13 01:03:44;;;;;;;2.65;2.08;;;;;;;5.27;100.00;95102.81;5083791;28;20115;-50
2023/04/13 01:06:27;;;;;;;3.05;1.90;;;;;;;5.43;100.00;95108.47;5082900;28;20028;-50
2023/04/13 01:09:05;;;;;;;2.10;1.95;;;;;;;5.22;100.00;95120.63;5079119;28;20073;-51
2023/04/13 01:11:44;;;;;;;2.25;1.60;;;;;;;5.02;100.00;95115.22;5078638;28;20564;-53
2023/04/13 01:14:22;;;;;;;1.60;1.45;;;;;;;5.18;100.00;95121.81;5085260;28;20048;-54
2023/04/13 01:16:52;;;;;;;1.60;1.50;;;;;;;4.91;100.00;95128.28;5083513;28;20028;-53
2023/04/13 01:20:11;;;;;;;1.50;1.40;;;;;;;4.93;100.00;95119.38;5078982;28;20020;-49
2023/04/13 01:22:44;;;;;;;1.85;1.55;;;;;;;4.78;100.00;95123.19;5077092;28;20093;-50
2023/04/13 01:25:26;;;;;;;1.63;1.50;;;;;;;4.67;100.00;95124.03;5084918;28;20032;-50
2023/04/13 01:28:00;;;;;;;1.40;1.30;;;;;;;4.80;100.00;95127.34;5077433;28;20036;-49
2023/04/13 01:30:27;;;;;;;1.50;1.40;;;;;;;4.93;100.00;95127.22;5078387;28;20031;-51
2023/04/13 01:32:54;;;;;;;1.60;1.50;;;;;;;4.67;100.00;95117.06;5076881;28;20028;-49
2023/04/13 01:35:21;;;;;;;1.55;1.45;;;;;;;4.32;100.00;95101.53;5077021;28;20035;-50
2023/04/13 01:37:47;;;;;;;2.25;1.27;;;;;;;4.16;100.00;95102.69;5087357;28;20032;-49
2023/04/13 01:40:13;;;;;;;2.05;1.70;;;;;;;4.11;100.00;95107.44;5091127;28;20418;-54
2023/04/13 01:42:40;;;;;;;2.10;1.90;;;;;;;4.14;100.00;95109.81;5088511;28;20028;-51
2023/04/13 01:45:11;;;;;;;3.72;2.00;;;;;;;4.12;100.00;95104.69;5077676;28;20298;-50
2023/04/13 01:48:08;;;;;;;2.50;1.52;;;;;;;4.09;100.00;95106.69;5095367;28;20047;-50
2023/04/13 01:50:47;;;;;;;1.70;1.60;;;;;;;3.94;100.00;95109.53;5094565;28;20136;-53
2023/04/13 01:53:18;;;;;;;1.80;1.70;;;;;;;3.96;100.00;95118.06;5089708;28;20032;-54
2023/04/13 01:55:45;;;;;;;1.77;1.65;;;;;;;3.97;100.00;95124.94;5087700;28;20016;-51
2023/04/13 01:58:13;;;;;;;1.50;1.50;;;;;;;3.85;100.00;95118.03;5090509;28;20016;-55
2023/04/13 02:00:40;;;;;;;1.98;1.50;;;;;;;3.79;100.00;95126.31;5076965;28;20099;-49
2023/04/13 02:03:07;;;;;;;1.83;1.73;;;;;;;3.83;100.00;95128.56;5093313;28;20024;-52
2023/04/13 02:05:35;;;;;;;1.83;1.73;;;;;;;3.92;100.00;95123.59;5086064;28;20052;-54
2023/04/13 02:08:05;;;;;;;1.95;1.85;;;;;;;3.91;100.00;95120.19;5078359;28;20024;-52
2023/04/13 02:10:33;;;;;;;3.22;1.70;;;;;;;3.89;100.00;95127.28;5078874;28;20126;-48
2023/04/13 02:12:58;;;;;;;1.63;1.52;;;;;;;3.90;100.00;95123.75;5089839;28;20441;-50
2023/04/13 02:15:23;;;;;;;1.95;1.50;;;;;;;3.85;100.00;95115.41;5076727;28;20031;-54
2023/04/13 02:17:49;;;;;;;1.50;1.40;;;;;;;3.87;100.00;95113.56;5085784;28;20054;-52
2023/04/13 02:20:15;;;;;;;2.88;1.42;;;;;;;3.90;100.00;95108.13;5076603;28;20031;-53
2023/04/13 02:22:42;;;;;;;1.73;1.63;;;;;;;3.89;100.00;95103.84;5090868;28;20027;-51
2023/04/13 02:25:10;;;;;;;1.55;1.48;;;;;;;3.87;100.00;95105.75;5083423;28;20076;-52
2023/04/13 02:27:37;;;;;;;1.80;1.70;;;;;;;3.83;100.00;95102.53;5085137;28;20024;-54
2023/04/13 02:30:05;;;;;;;1.65;1.60;;;;;;;3.79;100.00;95095.06;5085574;28;20024;-53
2023/04/13 02:32:31;;;;;;;1.95;1.85;;;;;;;3.75;100.00;95094.44;5076117;28;20113;-53
2023/04/13 02:34:57;;;;;;;1.75;1.67;;;;;;;3.75;100.00;95101.44;5085324;28;20016;-49
2023/04/13 02:37:23;;;;;;;1.92;1.60;;;;;;;3.76;100.00;95100.50;5084631;28;20496;-53
2023/04/13 02:39:48;;;;;;;1.48;1.38;;;;;;;3.70;100.00;95101.78;5077353;28;20102;-54
2023/04/13 02:42:14;;;;;;;3.35;1.50;;;;;;;3.72;100.00;95100.72;5084098;28;20051;-52
2023/04/13 02:44:39;;;;;;;1.52;1.50;;;;;;;3.71;100.00;95106.03;5094719;28;20020;-50
2023/04/13 02:47:05;;;;;;;1.38;1.38;;;;;;;3.70;100.00;95104.38;5076806;28;20033;-54
2023/04/13 02:49:31;;;;;;;1.30;1.30;;;;;;;3.78;100.00;95103.81;5089376;28;20028;-51
2023/04/13 02:51:57;;;;;;;2.53;1.50;;;;;;;3.77;100.00;95103.00;5085232;28;20107;-54
2023/04/13 02:54:23;;;;;;;2.75;1.30;;;;;;;3.71;100.00;95096.47;5086750;28;20091;-52
2023/04/13 02:56:48;;;;;;;1.38;1.20;;;;;;;3.72;100.00;95090.31;5076707;28;20052;-51
2023/04/13 02:59:15;;;;;;;1.55;1.38;;;;;;;3.61;100.00;95087.66;5078746;28;20086;-49
2023/04/13 03:01:40;;;;;;;1.27;1.27;;;;;;;3.63;100.00;95101.41;5076004;28;20028;-50
2023/04/13 03:04:06;;;;;;;1.50;1.50;;;;;;;3.70;100.00;95096.56;5088621;28;20468;-54
2023/04/13 03:06:32;;;;;;;1.17;1.10;;;;;;;3.75;100.00;95098.84;5094829;28;20039;-53
2023/04/13 03:08:58;;;;;;;1.42;1.42;;;;;;;3.65;100.00;95099.53;5078885;28;20195;-51
2023/04/13 03:11:24;;;;;;;1.40;1.40;;;;;;;3.65;100.00;95099.53;5086400;28;20552;-51
2023/04/13 03:13:53;;;;;;;1.27;1.27;;;;;;;3.59;100.00;95107.78;5076450;28;20041;-51
2023/04/13 03:16:19;;;;;;;1.63;1.52;;;;;;;3.58;100.00;95103.50;5076777;28;20040;-54
2023/04/13 03:18:45;;;;;;;1.73;1.42;;;;;;;3.55;100.00;95108.94;5075451;28;20066;-52
2023/04/13 03:21:11;;;;;;;3.40;1.50;;;;;;;3.56;100.00;95108.00;5085439;28;20024;-51
2023/04/13 03:23:37;;;;;;;1.33;1.30;;;;;;;3.51;100.00;95104.91;5091522;28;20071;-54
2023/04/13 03:26:03;;;;;;;1.35;1.35;;;;;;;3.51;100.00;95107.53;5081821;28;20083;-53
2023/04/13 03:28:28;;;;;;;2.40;1.45;;;;;;;3.48;100.00;95105.16;5082775;28;20032;-53
2023/04/13 03:30:54;;;;;;;5.18;3.08;;;;;;;3.37;100.00;95103.34;5081436;28;20048;-53
2023/04/13 03:33:20;;;;;;;2.70;2.50;;;;;;;3.33;100.00;95100.13;5086411;28;20415;-51
2023/04/13 03:35:46;;;;;;;5.28;4.78;;;;;;;3.34;100.00;95100.97;5081715;28;20486;-52
2023/04/13 03:38:11;;;;;;;3.92;3.10;;;;;;;3.32;100.00;95102.84;5077265;28;20517;-53
2023/04/13 03:40:36;;;;;;;4.78;2.55;;;;;;;3.29;100.00;95107.31;5092883;28;20454;-51
2023/04/13 03:43:02;;;;;;;2.60;2.40;;;;;;;3.36;100.00;95107.69;5079686;28;20456;-53
2023/04/13 03:45:27;;;;;;;1.98;1.88;;;;;;;3.41;100.00;95105.56;5076119;28;20362;-50
2023/04/13 03:47:53;;;;;;;3.10;2.33;;;;;;;3.49;100.00;95106.81;5075632;28;20054;-54
2023/04/13 03:50:18;;;;;;;2.45;2.25;;;;;;;3.52;100.00;95111.78;5092068;28;20491;-51
2023/04/13 03:52:44;;;;;;;9.07;4.78;;;;;;;3.50;100.00;95106.69;5094330;28;20024;-50
2023/04/13 03:55:09;;;;;;;3.22;2.20;;;;;;;3.50;100.00;95113.66;5091147;28;20035;-53
2023/04/13 03:57:35;;;;;;;2.95;2.65;;;;;;;3.46;100.00;95117.44;5078877;28;20055;-52
2023/04/13 04:00:01;;;;;;;2.55;2.35;;;;;;;3.41;100.00;95113.38;5077955;28;20024;-52
2023/04/13 04:02:26;;;;;;;3.08;2.30;;;;;;;3.35;100.00;95111.25;5080761;28;20020;-51
2023/04/13 04:04:52;;;;;;;2.45;2.35;;;;;;;3.36;100.00;95107.69;5083150;28;20493;-52
2023/04/13 04:07:21;;;;;;;2.72;2.53;;;;;;;3.47;100.00;95117.31;5083996;28;20032;-50
2023/04/13 04:09:47;;;;;;;2.58;2.40;;;;;;;3.51;100.00;95120.53;5084936;28;20119;-50
2023/04/13 04:12:13;;;;;;;4.35;2.78;;;;;;;3.63;100.00;95124.00;5080175;28;20104;-51
2023/04/13 04:14:38;;;;;;;2.58;2.38;;;;;;;3.60;100.00;95130.25;5080448;28;20039;-52
2023/04/13 04:17:04;;;;;;;3.58;2.63;;;;;;;3.70;100.00;95123.44;5080247;28;20027;-52
2023/04/13 04:19:29;;;;;;;2.83;2.63;;;;;;;3.74;100.00;95131.84;5081446;28;20027;-54
2023/04/13 04:21:56;;;;;;;2.67;2.47;;;;;;;3.84;100.00;95126.78;5078386;28;20036;-53
2023/04/13 04:24:22;;;;;;;3.63;2.67;;;;;;;3.69;100.00;95127.00;5078956;28;20025;-55
2023/04/13 04:26:53;;;;;;;4.22;2.40;;;;;;;3.76;100.00;95131.75;5080354;28;20103;-50
2023/04/13 04:29:28;;;;;;;2.67;2.42;;;;;;;3.60;100.00;95124.25;5089457;28;20099;-48
2023/04/13 04:31:54;;;;;;;3.08;2.67;;;;;;;3.51;100.00;95131.75;5079151;28;20113;-54
2023/04/13 04:34:20;;;;;;;3.50;2.65;;;;;;;3.49;100.00;95128.44;5079432;28;20373;-54
2023/04/13 04:36:49;;;;;;;3.03;2.53;;;;;;;3.52;100.00;95136.03;5083783;28;20028;-54
2023/04/13 04:39:20;;;;;;;3.17;2.60;;;;;;;3.50;100.00;95129.28;5077598;28;20537;-52
2023/04/13 04:41:53;;;;;;;4.32;2.72;;;;;;;3.51;100.00;95136.97;5076405;28;20025;-53
2023/04/13 04:44:29;;;;;;;3.85;2.70;;;;;;;3.42;100.00;95122.03;5088264;28;20024;-52
2023/04/13 04:46:58;;;;;;;3.33;2.78;;;;;;;3.39;100.00;95124.88;5080310;28;20036;-50
2023/04/13 04:49:26;;;;;;;3.72;3.03;;;;;;;3.44;100.00;95123.59;5077898;28;20028;-54
2023/04/13 04:51:53;;;;;;;5.45;3.80;;;;;;;3.49;100.00;95127.63;5078524;28;20032;-51
2023/04/13 04:54:19;;;;;;;6.35;3.05;;;;;;;3.37;100.00;95124.97;5089294;28;20019;-54
2023/04/13 04:56:46;;;;;;;5.22;3.08;;;;;;;3.35;100.00;95126.84;5084491;28;20032;-52
2023/04/13 04:59:11;;;;;;;5.20;2.28;;;;;;;3.32;100.00;95137.47;5083045;28;20166;-53
2023/04/13 05:01:37;;;;;;;4.40;2.70;;;;;;;3.31;100.00;95138.44;5085914;28;20051;-54
2023/04/13 05:04:03;;;;;;;3.00;2.40;;;;;;;3.42;100.00;95141.06;5082282;28;20107;-49
2023/04/13 05:06:32;;;;;;;4.82;2.20;;;;;;;3.46;100.00;95140.88;5080446;28;20024;-53
2023/04/13 05:09:03;;;;;;;5.35;2.75;;;;;;;3.50;100.00;95147.50;5090558;28;20020;-50
2023/04/13 05:11:29;;;;;;;6.72;3.67;;;;;;;3.53;100.00;95144.69;5076835;28;20090;-51
2023/04/13 05:13:55;;;;;;;7.35;4.22;;;;;;;3.46;100.00;95146.06;5082467;28;20206;-54
2023/04/13 05:16:21;;;;;;;3.28;2.88;;;;;;;3.43;100.00;95142.75;5077237;28;20433;-51
2023/04/13 05:18:48;;;;;;;3.65;2.80;;;;;;;3.55;100.00;95148.00;5079037;28;20032;-64
2023/04/13 05:21:14;;;;;;;10.93;6.32;;;;;;;3.62;100.00;95144.00;5095256;28;20135;-64
2023/04/13 05:23:41;;;;;;;7.45;4.07;;;;;;;3.55;100.00;95145.38;5088978;28;20071;-64
2023/04/13 05:26:09;;;;;;;3.88;3.00;;;;;;;3.56;100.00;95134.88;5075782;28;20028;-64
2023/04/13 05:28:34;;;;;;;4.30;3.47;;;;;;;3.59;100.00;95144.22;5092708;28;20093;-64
2023/04/13 05:31:05;;;;;;;4.60;3.28;;;;;;;3.61;100.00;95147.53;5086039;28;20032;-64
2023/04/13 05:33:31;;;;;;;5.32;3.50;;;;;;;3.61;100.00;95144.94;5088510;28;20509;-64
2023/04/13 05:35:57;;;;;;;5.82;3.40;;;;;;;3.61;100.00;95152.75;5077230;28;20047;-64
2023/04/13 05:38:22;;;;;;;6.25;3.60;;;;;;;3.76;100.00;95149.97;5078054;28;20394;-64
2023/04/13 05:40:48;;;;;;;5.10;3.75;;;;;;;3.74;100.00;95144.84;5080261;28;20020;-64
2023/04/13 05:43:14;;;;;;;7.90;4.00;;;;;;;3.68;100.00;95146.16;5081455;28;20028;-64
2023/04/13 05:45:40;;;;;;;6.97;3.92;;;;;;;3.89;100.00;95149.88;5085993;28;20150;-64
2023/04/13 05:48:05;;;;;;;6.78;3.17;;;;;;;3.81;100.00;95140.88;5077431;28;20064;-64
2023/04/13 05:50:31;;;;;;;5.18;3.80;;;;;;;3.77;100.00;95128.19;5079783;28;20024;-64
2023/04/13 05:52:56;;;;;;;8.20;3.45;;;;;;;3.80;100.00;95138.38;5076590;28;20498;-64
2023/04/13 05:55:23;;;;;;;5.25;3.47;;;;;;;3.79;100.00;95141.94;5074415;28;20025;-64
2023/04/13 05:57:49;;;;;;;6.82;3.53;;;;;;;3.79;100.00;95136.72;5080592;28;20446;-64
2023/04/13 06:00:17;;;;;;;8.60;4.43;;;;;;;3.80;100.00;95136.63;5086309;28;20733;-64
2023/04/13 06:02:43;;;;;;;4.28;3.05;;;;;;;3.86;100.00;95143.13;5088437;28;20024;-64
2023/04/13 06:05:13;;;;;;;4.13;3.08;;;;;;;3.89;100.00;95148.13;5076401;28;20062;-64
2023/04/13 06:07:38;;;;;;;7.40;3.22;;;;;;;3.91;100.00;95143.63;5082953;28;20097;-65
2023/04/13 06:10:04;;;;;;;4.60;3.08;;;;;;;4.07;100.00;95143.31;5078537;28;20037;-64
2023/04/13 06:12:30;;;;;;;7.95;3.13;;;;;;;4.06;100.00;95140.81;5087690;28;20023;-64
2023/04/13 06:14:56;;;;;;;13.13;4.03;;;;;;;4.03;100.00;95130.63;5082552;28;20055;-63
2023/04/13 06:17:21;;;;;;;12.98;3.67;;;;;;;3.96;100.00;95133.69;5083560;28;20612;-64
2023/04/13 06:19:47;;;;;;;8.00;3.83;;;;;;;3.94;100.00;95132.97;5085777;28;20099;-63
2023/04/13 06:22:12;;;;;;;7.97;4.65;;;;;;;3.89;100.00;95137.72;5094522;28;20043;-64
2023/04/13 06:24:38;;;;;;;9.20;3.47;;;;;;;3.75;100.00;95125.69;5096143;28;20017;-63
2023/04/13 06:27:03;;;;;;;7.32;3.03;;;;;;;3.70;100.00;95125.22;5080652;28;20051;-64
2023/04/13 06:29:29;;;;;;;8.70;4.22;;;;;;;3.68;100.00;95120.13;5094483;28;20024;-64
2023/04/13 06:31:54;;;;;;;8.25;4.38;;;;;;;3.66;100.00;95119.41;5087589;28;20400;-64
2023/04/13 06:34:20;;;;;;;5.95;4.32;;;;;;;3.89;100.00;95124.69;5080551;28;20112;-64
2023/04/13 06:36:45;;;;;;;10.05;3.63;;;;;;;4.48;100.00;95119.44;5087907;28;20039;-63
2023/04/13 06:39:11;;;;;;;8.77;2.90;;;;;;;5.22;100.00;95124.06;5082157;28;20049;-64
2023/04/13 06:41:36;;;;;;;9.10;3.45;;;;;;;5.97;100.00;95115.47;5086806;28;20432;-63
2023/04/13 06:44:03;;;;;;;9.75;3.05;;;;;;;6.50;100.00;95118.94;5089784;28;20035;-65
2023/04/13 06:46:28;;;;;;;6.65;2.53;;;;;;;6.85;97.79;95118.50;5082304;28;20025;-64
2023/04/13 06:48:54;;;;;;;12.30;3.05;;;;;;;7.31;92.63;95116.28;5081939;28;20031;-65
2023/04/13 06:51:20;;;;;;;3.85;2.70;;;;;;;7.89;90.25;95119.84;5083475;28;20450;-65
2023/04/13 06:53:45;;;;;;;8.40;5.32;;;;;;;8.26;85.01;95117.47;5075509;28;20450;-63
2023/04/13 06:56:11;;;;;;;6.00;3.15;;;;;;;8.54;84.41;95126.25;5082171;28;20028;-63
2023/04/13 06:58:36;;;;;;;4.80;2.65;;;;;;;8.67;82.55;95119.84;5088098;28;20084;-64
2023/04/13 07:01:03;;;;;;;10.07;4.18;;;;;;;8.38;81.30;95118.13;5076243;28;20047;-64
2023/04/13 07:03:29;;;;;;;7.45;4.25;;;;;;;8.38;79.64;95110.25;5085862;28;20028;-63
2023/04/13 07:05:54;;;;;;;8.15;3.83;;;;;;;7.88;83.85;95110.34;5076668;28;20463;-65
2023/04/13 07:08:20;;;;;;;6.22;2.65;;;;;;;7.52;84.02;95107.47;5082682;28;20068;-65
2023/04/13 07:10:45;;;;;;;5.35;2.55;;;;;;;7.56;86.63;95113.25;5082324;28;20024;-65
2023/04/13 07:13:11;;;;;;;3.78;2.53;;;;;;;7.30;86.77;95113.78;5094778;28;20031;-65
2023/04/13 07:15:37;;;;;;;10.98;3.58;;;;;;;7.13;89.19;95123.94;5083708;28;20107;-65
2023/04/13 07:18:02;;;;;;;6.22;2.95;;;;;;;7.03;90.30;95123.09;5083855;28;20067;-65
2023/04/13 07:20:28;;;;;;;5.35;2.70;;;;;;;6.74;91.63;95114.19;5084909;28;20058;-65
2023/04/13 07:22:53;;;;;;;5.85;3.17;;;;;;;6.55;92.29;95119.34;5082632;28;20019;-65
2023/04/13 07:25:20;;;;;;;4.40;2.47;;;;;;;6.78;92.11;95116.56;5086805;28;20081;-65
2023/04/13 07:27:46;;;;;;;3.83;2.75;;;;;;;6.97;90.48;95116.59;5090032;28;20071;-65
2023/04/13 07:30:15;;;;;;;5.53;2.72;;;;;;;6.88;86.77;95110.38;5079350;28;20020;-65
2023/04/13 07:32:40;;;;;;;4.75;2.85;;;;;;;7.24;85.68;95114.34;5076331;28;20111;-65
2023/04/13 07:35:06;;;;;;;6.80;3.30;;;;;;;7.40;82.10;95111.19;5075786;28;20032;-65
2023/04/13 07:37:31;;;;;;;6.78;2.80;;;;;;;7.16;82.10;95115.81;5087279;28;20073;-66
2023/04/13 07:39:57;;;;;;;5.07;2.38;;;;;;;7.04;80.09;95109.06;5075995;28;20044;-65
2023/04/13 07:42:23;;;;;;;4.90;2.40;;;;;;;7.16;82.24;95104.53;5077206;28;20474;-65
2023/04/13 07:44:49;;;;;;;6.40;2.25;;;;;;;7.87;82.74;95105.25;5074914;28;20043;-65
2023/04/13 07:47:15;;;;;;;6.93;2.65;;;;;;;8.09;76.12;95093.63;5087867;28;20032;-65
2023/04/13 07:49:40;;;;;;;7.78;2.78;;;;;;;8.12;76.10;95092.53;5088423;28;20036;-65
2023/04/13 07:52:06;;;;;;;6.72;2.33;;;;;;;8.18;73.99;95091.94;5087149;28;20043;-65
2023/04/13 07:54:33;;;;;;;6.63;2.30;;;;;;;8.27;76.90;95092.88;5092072;28;20419;-65
2023/04/13 07:56:58;;;;;;;11.18;3.00;;;;;;;8.42;77.41;95085.38;5093505;28;20373;-65
2023/04/13 07:59:24;;;;;;;7.30;3.30;;;;;;;8.32;74.23;95088.88;5089925;28;20044;-65
2023/04/13 08:01:49;;;;;;;6.30;2.92;;;;;;;8.04;77.23;95085.34;5084673;28;20012;-65
2023/04/13 08:04:15;;;;;;;8.63;2.70;;;;;;;7.87;77.91;95086.91;5079982;28;20017;-66
2023/04/13 08:06:40;;;;;;;5.43;2.75;;;;;;;7.50;80.70;95090.22;5081681;28;20410;-66
2023/04/13 08:09:05;;;;;;;6.90;2.90;;;;;;;7.73;79.69;95088.97;5088778;28;20048;-66
2023/04/13 08:11:31;;;;;;;8.43;2.80;;;;;;;9.21;75.89;95092.91;5093458;28;20126;-66
2023/04/13 08:13:57;;;;;;;8.00;2.80;;;;;;;10.59;68.19;95088.09;5083519;28;20123;-65
2023/04/13 08:16:22;;;;;;;5.25;2.97;;;;;;;11.64;59.89;95087.91;5080680;28;20056;-64
2023/04/13 08:18:47;;;;;;;6.47;2.15;;;;;;;12.42;60.35;95080.47;5085120;28;20062;-66
2023/04/13 08:21:14;;;;;;;6.47;3.28;;;;;;;12.45;59.08;95077.50;5090712;28;20162;-66
2023/04/13 08:23:42;;;;;;;5.18;2.20;;;;;;;11.70;57.76;95085.44;5101431;28;20042;-66
2023/04/13 08:26:17;;;;;;;3.63;2.13;;;;;;;10.93;63.70;95082.97;5091312;28;20047;-66
2023/04/13 08:28:42;;;;;;;5.93;2.53;;;;;;;10.83;63.55;95089.19;5093477;28;20091;-66
2023/04/13 08:31:08;;;;;;;2.58;2.00;;;;;;;10.40;65.40;95093.53;5087856;28;20630;-66
2023/04/13 08:33:33;;;;;;;4.00;2.20;;;;;;;9.77;66.70;95082.25;5097922;28;20024;-66
2023/04/13 08:35:58;;;;;;;5.18;2.47;;;;;;;9.74;64.86;95073.69;5079939;28;21020;-66
2023/04/13 08:38:24;;;;;;;4.97;2.78;;;;;;;9.68;60.88;95082.19;5097467;28;20057;-66
2023/04/13 08:40:51;;;;;;;4.65;1.88;;;;;;;9.58;59.67;95079.66;5097388;28;20032;-66
2023/04/13 08:43:18;;;;;;;5.40;2.42;;;;;;;9.57;59.10;95075.38;5097113;28;20036;-66
2023/04/13 08:45:44;;;;;;;5.50;2.05;;;;;;;9.15;63.88;95082.00;5087231;28;20024;-67
2023/04/13 08:48:12;;;;;;;3.67;2.00;;;;;;;8.83;64.57;95072.81;5084474;28;20103;-66
2023/04/13 08:50:38;;;;;;;5.47;2.63;;;;;;;9.04;65.10;95074.34;5089839;28;20027;-66
2023/04/13 08:53:03;;;;;;;9.95;2.30;;;;;;;9.28;63.65;95078.22;5089085;28;20028;-66
2023/04/13 08:55:28;;;;;;;6.43;2.20;;;;;;;9.53;60.27;95075.81;5084207;28;20436;-66
2023/04/13 08:57:56;;;;;;;4.50;1.90;;;;;;;9.86;59.86;95081.34;5090139;28;20016;-65
2023/04/13 09:00:23;;;;;;;3.60;2.00;;;;;;;10.18;58.61;95064.16;5079856;28;20362;-65
2023/04/13 09:02:57;;;;;;;7.00;2.88;;;;;;;10.66;57.18;95066.41;5091225;28;20050;-65
2023/04/13 09:05:25;;;;;;;4.28;2.65;;;;;;;11.36;56.25;95060.03;5097508;28;20032;-65
2023/04/13 09:07:55;;;;;;;5.10;2.30;;;;;;;12.41;53.77;95049.78;5096472;28;20362;-65
2023/04/13 09:10:22;;;;;;;4.25;1.88;;;;;;;13.29;49.71;95045.28;5096280;28;20107;-65
2023/04/13 09:12:49;;;;;;;2.58;1.70;;;;;;;14.13;48.73;95048.16;5095557;28;20020;-65
2023/04/13 09:15:15;;;;;;;3.92;2.00;;;;;;;14.37;45.05;95054.22;5093400;28;20373;-65
2023/04/13 09:17:41;;;;;;;5.28;2.10;;;;;;;15.02;46.14;95047.34;5094684;28;20024;-66
2023/04/13 09:20:16;;;;;;;6.50;2.08;;;;;;;15.74;43.13;95050.16;5087835;28;20048;-65
2023/04/13 09:22:42;;;;;;;;;;;;;;;15.86;42.33;95044.34;5094430;28;20164;-65
2023/04/13 09:25:22;;;;;;;4.35;2.60;;;;;;;15.42;40.16;95046.16;5092799;28;19939;-65
2023/04/13 09:27:48;;;;;;;3.97;1.88;;;;;;;14.50;42.71;95053.56;5086990;28;20028;-65
2023/04/13 09:30:17;;;;;;;3.58;2.10;;;;;;;12.86;45.38;95052.78;5087067;28;20426;-65
2023/04/13 09:32:42;;;;;;;4.25;2.20;;;;;;;13.02;45.32;95052.69;5089624;28;20099;-65
2023/04/13 09:35:08;;;;;;;3.20;1.73;;;;;;;13.46;40.28;95055.78;5089555;28;20046;-66
2023/04/13 09:37:35;;;;;;;5.32;1.70;;;;;;;13.15;42.71;95057.44;5091160;28;20466;-66
2023/04/13 09:40:15;;;;;;;3.58;1.63;;;;;;;12.70;43.78;95051.00;5096367;28;20048;-65
2023/04/13 09:42:55;;;;;;;4.95;1.77;;;;;;;12.22;45.41;95051.00;5082638;28;20146;-64
2023/04/13 09:45:21;;;;;;;2.22;1.50;;;;;;;12.25;43.80;95056.75;5076988;28;20108;-64
2023/04/13 09:47:47;;;;;;;5.03;2.10;;;;;;;11.37;45.76;95052.94;5084057;28;20064;-64
2023/04/13 09:50:17;;;;;;;7.68;2.10;;;;;;;10.99;47.81;95048.09;5093994;28;20032;-64
2023/04/13 09:52:43;;;;;;;4.30;2.13;;;;;;;10.13;50.12;95055.91;5086597;28;20072;-64
2023/04/13 09:55:16;;;;;;;5.70;2.55;;;;;;;10.07;51.59;95065.22;5085877;28;20119;-64
2023/04/13 09:57:42;;;;;;;5.38;2.40;;;;;;;9.54;53.87;95074.84;5093060;28;20480;-64
2023/04/13 10:00:13;;;;;;;9.60;2.90;;;;;;;8.58;61.17;95077.78;5090716;28;20020;-65
2023/04/13 10:02:40;;;;;;;4.97;2.28;;;;;;;7.87;64.87;95079.84;5085084;28;20024;-64
2023/04/13 10:05:08;;;;;;;5.60;2.63;;;;;;;7.74;67.93;95074.09;5094522;28;20110;-64
2023/04/13 10:07:36;;;;;;;5.00;2.50;;;;;;;7.48;69.04;95071.22;5094930;28;20417;-64
2023/04/13 10:10:04;;;;;;;8.80;2.47;;;;;;;7.88;69.58;95072.84;5092036;28;20029;-64
2023/04/13 10:12:33;;;;;;;5.70;2.75;;;;;;;8.23;68.54;95070.56;5079004;28;20020;-64
2023/04/13 10:15:30;;;;;;;7.57;2.90;;;;;;;9.06;65.99;95064.53;5083889;28;20073;-67
2023/04/13 10:18:18;;;;;;;4.88;2.83;;;;;;;10.23;57.16;95080.28;5093528;28;20016;-66
2023/04/13 10:20:46;;;;;;;3.67;2.13;;;;;;;10.19;57.58;95076.31;5091889;28;20028;-67
2023/04/13 10:23:12;;;;;;;8.43;2.67;;;;;;;9.68;57.36;95081.34;5095740;28;20028;-67
2023/04/13 10:25:48;;;;;;;5.22;2.20;;;;;;;8.97;62.07;95075.94;5083289;28;20024;-67
2023/04/13 10:28:14;;;;;;;6.03;2.05;;;;;;;9.30;58.25;95073.63;5093573;28;20024;-67
2023/04/13 10:30:48;;;;;;;6.35;2.88;;;;;;;8.89;60.40;95066.97;5093140;28;20012;-54
2023/04/13 10:33:14;;;;;;;5.50;2.33;;;;;;;9.38;57.78;95065.00;5086683;28;20493;-66
2023/04/13 10:35:40;;;;;;;7.13;2.75;;;;;;;9.31;60.13;95059.53;5088434;28;20050;-66
2023/04/13 10:38:07;;;;;;;8.02;2.78;;;;;;;8.99;63.27;95058.22;5064900;28;20060;-67
2023/04/13 10:40:46;;;;;;;6.88;2.50;;;;;;;9.38;62.89;95059.75;5078417;28;20074;-68
2023/04/13 10:43:22;;;;;;;5.40;2.80;;;;;;;9.18;64.32;95057.25;5088240;28;20407;-66
2023/04/13 10:45:48;;;;;;;6.55;2.72;;;;;;;9.10;62.31;95065.88;5083082;28;20516;-66
2023/04/13 10:48:22;;;;;;;8.63;2.92;;;;;;;8.56;61.55;95065.75;5094939;28;20042;-67
2023/04/13 10:50:59;;;;;;;5.00;2.63;;;;;;;7.94;64.05;95067.03;5094204;28;20027;-66
2023/04/13 10:53:29;;;;;;;6.47;2.50;;;;;;;7.91;61.08;95069.94;5094362;28;20027;-66
2023/04/13 10:55:55;;;;;;;5.40;2.15;;;;;;;7.43;64.96;95076.84;5086395;28;20050;-66
2023/04/13 10:58:21;;;;;;;3.97;2.00;;;;;;;7.60;68.04;95085.81;5078571;28;20024;-66
2023/04/13 11:00:49;;;;;;;3.95;2.38;;;;;;;7.46;68.38;95092.28;5086701;28;20054;-67
2023/04/13 11:03:16;;;;;;;2.75;2.17;;;;;;;7.26;72.87;95107.16;5087014;28;20031;-66
2023/04/13 11:05:42;;;;;;;2.17;1.80;;;;;;;6.36;76.60;95112.25;5086839;28;20096;-65
2023/04/13 11:08:08;;;;;;;5.03;1.90;;;;;;;6.28;81.22;95108.47;5090474;28;20122;-65
2023/04/13 11:10:33;;;;;;;3.13;1.90;;;;;;;6.00;81.98;95097.72;5076071;28;20017;-65
2023/04/13 11:12:59;;;;;;;5.72;2.25;;;;;;;5.74;81.84;95097.25;5084609;28;20031;-65
2023/04/13 11:15:29;;;;;;;2.85;1.63;;;;;;;6.10;79.76;95089.16;5088007;28;20042;-65
2023/04/13 11:17:57;;;;;;;2.25;1.50;;;;;;;5.88;82.28;95085.69;5093491;28;20085;-65
2023/04/13 11:20:30;;;;;;;2.92;2.40;;;;;;;6.37;80.28;95091.19;5080828;28;20028;-66
2023/04/13 11:22:56;;;;;;;19.13;12.25;;;;;;;6.51;81.46;95094.44;5084275;28;20015;-66
2023/04/13 11:25:22;;;;;;;4.80;3.20;;;;;;;6.32;83.32;95092.56;5075842;28;20027;-66
2023/04/13 11:28:03;;;;;;;7.20;3.20;;;;;;;6.66;82.82;95084.44;5084729;28;20377;-66
2023/04/13 11:30:30;;;;;;;3.20;2.58;;;;;;;7.46;83.79;95076.56;5088382;28;20038;-66
2023/04/13 11:33:01;;;;;;;3.10;2.10;;;;;;;7.93;80.41;95065.38;5091659;28;20020;-66
2023/04/13 11:35:26;;;;;;;3.72;2.40;;;;;;;7.96;82.63;95067.72;5087255;28;20027;-66
2023/04/13 11:37:54;;;;;;;2.90;1.80;;;;;;;8.20;81.91;95071.66;5089434;28;20028;-53